sensor_id;sensor_type;location;lat;lon;timestamp;temperature;humidity
59572;DHT22;59406;45.602;11.904;2022-12-29T00:00:07;7.60;87.90
59572;DHT22;59406;45.602;11.904;2022-12-29T00:02:33;7.30;87.90
59572;DHT22;59406;45.602;11.904;2022-12-29T00:04:58;7.50;87.60
59572;DHT22;59406;45.602;11.904;2022-12-29T00:07:24;7.50;87.20
59572;DHT22;59406;45.602;11.904;2022-12-29T00:09:50;7.70;87.10
59572;DHT22;59406;45.602;11.904;2022-12-29T00:12:16;7.70;87.00
59572;DHT22;59406;45.602;11.904;2022-12-29T00:14:42;7.80;86.70
59572;DHT22;59406;45.602;11.904;2022-12-29T00:17:26;7.70;86.40
59572;DHT22;59406;45.602;11.904;2022-12-29T00:19:52;7.90;86.20
59572;DHT22;59406;45.602;11.904;2022-12-29T00:22:36;8.00;86.00
59572;DHT22;59406;45.602;11.904;2022-12-29T00:25:20;8.00;85.70
59572;DHT22;59406;45.602;11.904;2022-12-29T00:28:10;8.10;85.70
59572;DHT22;59406;45.602;11.904;2022-12-29T00:30:59;8.20;86.00
59572;DHT22;59406;45.602;11.904;2022-12-29T00:33:43;8.10;85.80
59572;DHT22;59406;45.602;11.904;2022-12-29T00:36:35;8.30;85.80
59572;DHT22;59406;45.602;11.904;2022-12-29T00:39:14;8.20;85.90
59572;DHT22;59406;45.602;11.904;2022-12-29T00:42:07;8.10;86.10
59572;DHT22;59406;45.602;11.904;2022-12-29T00:44:52;8.10;85.90
59572;DHT22;59406;45.602;11.904;2022-12-29T00:47:17;8.20;85.80
59572;DHT22;59406;45.602;11.904;2022-12-29T00:49:43;8.20;85.80
59572;DHT22;59406;45.602;11.904;2022-12-29T00:52:11;8.20;85.80
59572;DHT22;59406;45.602;11.904;2022-12-29T00:54:39;8.30;85.80
59572;DHT22;59406;45.602;11.904;2022-12-29T00:57:07;8.20;86.20
59572;DHT22;59406;45.602;11.904;2022-12-29T00:59:35;8.20;86.20
59572;DHT22;59406;45.602;11.904;2022-12-29T01:02:01;8.10;86.10
59572;DHT22;59406;45.602;11.904;2022-12-29T01:04:27;8.20;86.10
59572;DHT22;59406;45.602;11.904;2022-12-29T01:06:53;8.20;86.10
59572;DHT22;59406;45.602;11.904;2022-12-29T01:09:19;8.20;86.10
59572;DHT22;59406;45.602;11.904;2022-12-29T01:12:05;8.20;86.50
59572;DHT22;59406;45.602;11.904;2022-12-29T01:14:31;8.00;86.20
59572;DHT22;59406;45.602;11.904;2022-12-29T01:16:57;8.20;86.10
59572;DHT22;59406;45.602;11.904;2022-12-29T01:19:23;8.10;86.20
59572;DHT22;59406;45.602;11.904;2022-12-29T01:21:49;8.20;86.10
59572;DHT22;59406;45.602;11.904;2022-12-29T01:24:16;8.30;86.10
59572;DHT22;59406;45.602;11.904;2022-12-29T01:26:43;8.30;86.00
59572;DHT22;59406;45.602;11.904;2022-12-29T01:29:09;8.20;85.80
59572;DHT22;59406;45.602;11.904;2022-12-29T01:31:35;8.30;85.80
59572;DHT22;59406;45.602;11.904;2022-12-29T01:34:01;8.30;86.00
59572;DHT22;59406;45.602;11.904;2022-12-29T01:36:27;8.20;86.00
59572;DHT22;59406;45.602;11.904;2022-12-29T01:38:53;8.30;85.70
59572;DHT22;59406;45.602;11.904;2022-12-29T01:41:18;8.20;85.80
59572;DHT22;59406;45.602;11.904;2022-12-29T01:46:36;8.30;85.60
59572;DHT22;59406;45.602;11.904;2022-12-29T01:49:15;8.10;85.10
59572;DHT22;59406;45.602;11.904;2022-12-29T01:51:55;8.30;84.70
59572;DHT22;59406;45.602;11.904;2022-12-29T01:54:29;8.30;85.30
59572;DHT22;59406;45.602;11.904;2022-12-29T01:56:59;8.20;85.60
59572;DHT22;59406;45.602;11.904;2022-12-29T01:59:30;8.20;85.80
59572;DHT22;59406;45.602;11.904;2022-12-29T02:01:57;8.10;85.50
59572;DHT22;59406;45.602;11.904;2022-12-29T02:04:25;8.20;85.30
59572;DHT22;59406;45.602;11.904;2022-12-29T02:06:57;8.00;85.70
59572;DHT22;59406;45.602;11.904;2022-12-29T02:09:25;8.00;85.50
59572;DHT22;59406;45.602;11.904;2022-12-29T02:11:51;8.00;85.60
59572;DHT22;59406;45.602;11.904;2022-12-29T02:14:17;8.00;85.80
59572;DHT22;59406;45.602;11.904;2022-12-29T02:25:32;7.50;87.70
59572;DHT22;59406;45.602;11.904;2022-12-29T02:42:13;7.70;87.20
59572;DHT22;59406;45.602;11.904;2022-12-29T02:45:08;7.60;87.70
59572;DHT22;59406;45.602;11.904;2022-12-29T02:50:25;7.50;87.60
59572;DHT22;59406;45.602;11.904;2022-12-29T02:53:01;7.50;87.30
59572;DHT22;59406;45.602;11.904;2022-12-29T02:55:27;7.70;87.40
59572;DHT22;59406;45.602;11.904;2022-12-29T03:00:39;7.70;87.50
59572;DHT22;59406;45.602;11.904;2022-12-29T03:06:25;7.90;87.00
59572;DHT22;59406;45.602;11.904;2022-12-29T03:14:56;7.90;86.40
59572;DHT22;59406;45.602;11.904;2022-12-29T03:20:18;8.10;86.00
59572;DHT22;59406;45.602;11.904;2022-12-29T03:22:48;8.00;86.20
59572;DHT22;59406;45.602;11.904;2022-12-29T03:27:56;7.90;86.30
59572;DHT22;59406;45.602;11.904;2022-12-29T03:30:23;7.90;86.50
59572;DHT22;59406;45.602;11.904;2022-12-29T03:32:57;7.90;86.80
59572;DHT22;59406;45.602;11.904;2022-12-29T03:35:27;7.80;86.60
59572;DHT22;59406;45.602;11.904;2022-12-29T03:38:02;7.90;86.60
59572;DHT22;59406;45.602;11.904;2022-12-29T03:40:32;7.80;86.50
59572;DHT22;59406;45.602;11.904;2022-12-29T03:42:59;7.70;86.70
59572;DHT22;59406;45.602;11.904;2022-12-29T03:45:25;7.70;86.80
59572;DHT22;59406;45.602;11.904;2022-12-29T03:47:52;7.60;87.10
59572;DHT22;59406;45.602;11.904;2022-12-29T03:50:18;7.60;87.20
59572;DHT22;59406;45.602;11.904;2022-12-29T03:52:44;7.60;87.20
59572;DHT22;59406;45.602;11.904;2022-12-29T03:55:11;7.60;87.50
59572;DHT22;59406;45.602;11.904;2022-12-29T03:57:36;7.60;87.20
59572;DHT22;59406;45.602;11.904;2022-12-29T04:00:04;7.80;86.80
59572;DHT22;59406;45.602;11.904;2022-12-29T04:02:30;7.80;87.00
59572;DHT22;59406;45.602;11.904;2022-12-29T04:04:56;7.80;86.90
59572;DHT22;59406;45.602;11.904;2022-12-29T04:07:22;8.00;86.40
59572;DHT22;59406;45.602;11.904;2022-12-29T04:09:48;8.00;86.90
59572;DHT22;59406;45.602;11.904;2022-12-29T04:12:14;7.90;86.70
59572;DHT22;59406;45.602;11.904;2022-12-29T04:14:40;8.00;86.70
59572;DHT22;59406;45.602;11.904;2022-12-29T04:17:06;8.10;87.00
59572;DHT22;59406;45.602;11.904;2022-12-29T04:19:32;8.10;87.00
59572;DHT22;59406;45.602;11.904;2022-12-29T04:21:58;7.90;86.90
59572;DHT22;59406;45.602;11.904;2022-12-29T04:24:23;8.20;86.70
59572;DHT22;59406;45.602;11.904;2022-12-29T04:26:49;8.10;86.20
59572;DHT22;59406;45.602;11.904;2022-12-29T04:29:15;8.30;86.70
59572;DHT22;59406;45.602;11.904;2022-12-29T04:31:41;8.20;87.40
59572;DHT22;59406;45.602;11.904;2022-12-29T04:34:07;8.00;87.80
59572;DHT22;59406;45.602;11.904;2022-12-29T04:36:33;7.90;87.70
59572;DHT22;59406;45.602;11.904;2022-12-29T04:38:59;8.00;88.10
59572;DHT22;59406;45.602;11.904;2022-12-29T04:41:24;8.10;87.70
59572;DHT22;59406;45.602;11.904;2022-12-29T04:43:50;8.10;87.30
59572;DHT22;59406;45.602;11.904;2022-12-29T04:46:16;8.00;88.00
59572;DHT22;59406;45.602;11.904;2022-12-29T04:48:42;8.00;87.90
59572;DHT22;59406;45.602;11.904;2022-12-29T04:51:08;8.00;88.00
59572;DHT22;59406;45.602;11.904;2022-12-29T04:53:34;8.10;88.00
59572;DHT22;59406;45.602;11.904;2022-12-29T04:56:00;8.10;87.90
59572;DHT22;59406;45.602;11.904;2022-12-29T04:58:25;8.10;87.80
59572;DHT22;59406;45.602;11.904;2022-12-29T05:00:51;8.10;87.60
59572;DHT22;59406;45.602;11.904;2022-12-29T05:03:18;8.20;87.40
59572;DHT22;59406;45.602;11.904;2022-12-29T05:05:43;8.10;87.40
59572;DHT22;59406;45.602;11.904;2022-12-29T05:08:09;8.10;87.70
59572;DHT22;59406;45.602;11.904;2022-12-29T05:10:35;8.10;87.70
59572;DHT22;59406;45.602;11.904;2022-12-29T05:13:01;7.90;87.60
59572;DHT22;59406;45.602;11.904;2022-12-29T05:15:27;8.00;87.50
59572;DHT22;59406;45.602;11.904;2022-12-29T05:17:52;8.10;87.50
59572;DHT22;59406;45.602;11.904;2022-12-29T05:20:18;8.10;87.50
59572;DHT22;59406;45.602;11.904;2022-12-29T05:22:44;8.00;87.50
59572;DHT22;59406;45.602;11.904;2022-12-29T05:25:10;8.10;87.80
59572;DHT22;59406;45.602;11.904;2022-12-29T05:27:36;8.00;87.90
59572;DHT22;59406;45.602;11.904;2022-12-29T05:30:02;7.70;87.90
59572;DHT22;59406;45.602;11.904;2022-12-29T05:32:28;7.80;87.80
59572;DHT22;59406;45.602;11.904;2022-12-29T05:34:54;7.90;87.70
59572;DHT22;59406;45.602;11.904;2022-12-29T05:37:20;8.00;87.80
59572;DHT22;59406;45.602;11.904;2022-12-29T05:39:46;7.90;87.90
59572;DHT22;59406;45.602;11.904;2022-12-29T05:42:11;7.80;87.80
59572;DHT22;59406;45.602;11.904;2022-12-29T05:44:37;7.90;87.70
59572;DHT22;59406;45.602;11.904;2022-12-29T05:47:03;8.00;87.70
59572;DHT22;59406;45.602;11.904;2022-12-29T05:49:29;8.00;87.70
59572;DHT22;59406;45.602;11.904;2022-12-29T05:51:54;7.80;87.80
59572;DHT22;59406;45.602;11.904;2022-12-29T05:54:20;7.90;87.70
59572;DHT22;59406;45.602;11.904;2022-12-29T05:56:46;7.90;87.90
59572;DHT22;59406;45.602;11.904;2022-12-29T05:59:12;7.80;88.00
59572;DHT22;59406;45.602;11.904;2022-12-29T06:01:38;7.60;88.00
59572;DHT22;59406;45.602;11.904;2022-12-29T06:04:03;7.70;88.10
59572;DHT22;59406;45.602;11.904;2022-12-29T06:06:29;7.80;88.20
59572;DHT22;59406;45.602;11.904;2022-12-29T06:08:55;7.60;88.60
59572;DHT22;59406;45.602;11.904;2022-12-29T06:11:21;7.60;88.50
59572;DHT22;59406;45.602;11.904;2022-12-29T06:13:47;7.70;88.30
59572;DHT22;59406;45.602;11.904;2022-12-29T06:16:12;7.80;88.20
59572;DHT22;59406;45.602;11.904;2022-12-29T06:18:38;7.70;88.30
59572;DHT22;59406;45.602;11.904;2022-12-29T06:21:04;7.80;88.40
59572;DHT22;59406;45.602;11.904;2022-12-29T06:23:31;7.90;88.20
59572;DHT22;59406;45.602;11.904;2022-12-29T06:25:56;7.80;88.30
59572;DHT22;59406;45.602;11.904;2022-12-29T06:28:23;7.90;88.30
59572;DHT22;59406;45.602;11.904;2022-12-29T06:30:49;7.90;88.00
59572;DHT22;59406;45.602;11.904;2022-12-29T06:33:15;8.00;88.40
59572;DHT22;59406;45.602;11.904;2022-12-29T06:35:44;8.10;88.30
59572;DHT22;59406;45.602;11.904;2022-12-29T06:38:11;8.10;87.90
59572;DHT22;59406;45.602;11.904;2022-12-29T06:40:37;8.20;88.20
59572;DHT22;59406;45.602;11.904;2022-12-29T06:43:03;8.10;88.30
59572;DHT22;59406;45.602;11.904;2022-12-29T06:45:29;8.10;88.00
59572;DHT22;59406;45.602;11.904;2022-12-29T06:47:54;8.20;88.10
59572;DHT22;59406;45.602;11.904;2022-12-29T06:50:20;8.20;88.10
59572;DHT22;59406;45.602;11.904;2022-12-29T06:52:46;8.20;88.00
59572;DHT22;59406;45.602;11.904;2022-12-29T06:55:11;8.30;87.90
59572;DHT22;59406;45.602;11.904;2022-12-29T06:57:37;8.30;87.90
59572;DHT22;59406;45.602;11.904;2022-12-29T07:00:04;8.30;87.90
59572;DHT22;59406;45.602;11.904;2022-12-29T07:02:30;8.20;87.70
59572;DHT22;59406;45.602;11.904;2022-12-29T07:04:56;8.00;88.00
59572;DHT22;59406;45.602;11.904;2022-12-29T07:07:22;8.10;88.20
59572;DHT22;59406;45.602;11.904;2022-12-29T07:09:47;8.00;88.30
59572;DHT22;59406;45.602;11.904;2022-12-29T07:12:14;8.00;88.40
59572;DHT22;59406;45.602;11.904;2022-12-29T07:14:39;7.90;88.20
59572;DHT22;59406;45.602;11.904;2022-12-29T07:17:05;7.80;87.80
59572;DHT22;59406;45.602;11.904;2022-12-29T07:19:34;8.00;87.60
59572;DHT22;59406;45.602;11.904;2022-12-29T07:22:00;8.00;88.00
59572;DHT22;59406;45.602;11.904;2022-12-29T07:24:26;8.10;88.20
59572;DHT22;59406;45.602;11.904;2022-12-29T07:26:52;8.00;87.90
59572;DHT22;59406;45.602;11.904;2022-12-29T07:29:18;8.10;87.60
59572;DHT22;59406;45.602;11.904;2022-12-29T07:31:44;8.40;87.40
59572;DHT22;59406;45.602;11.904;2022-12-29T07:34:10;8.40;87.20
59572;DHT22;59406;45.602;11.904;2022-12-29T07:36:36;8.50;87.40
59572;DHT22;59406;45.602;11.904;2022-12-29T07:39:02;8.50;87.60
59572;DHT22;59406;45.602;11.904;2022-12-29T07:41:27;8.50;87.20
59572;DHT22;59406;45.602;11.904;2022-12-29T07:43:53;8.60;87.30
59572;DHT22;59406;45.602;11.904;2022-12-29T07:46:19;8.80;87.40
59572;DHT22;59406;45.602;11.904;2022-12-29T07:48:45;8.80;87.60
59572;DHT22;59406;45.602;11.904;2022-12-29T07:51:11;8.90;87.40
59572;DHT22;59406;45.602;11.904;2022-12-29T07:53:36;9.10;87.60
59572;DHT22;59406;45.602;11.904;2022-12-29T07:56:02;9.00;87.50
59572;DHT22;59406;45.602;11.904;2022-12-29T07:58:28;9.00;86.80
59572;DHT22;59406;45.602;11.904;2022-12-29T08:00:55;9.00;87.20
59572;DHT22;59406;45.602;11.904;2022-12-29T08:03:21;8.90;87.50
59572;DHT22;59406;45.602;11.904;2022-12-29T08:05:47;9.10;87.90
59572;DHT22;59406;45.602;11.904;2022-12-29T08:08:13;9.00;87.50
59572;DHT22;59406;45.602;11.904;2022-12-29T08:10:39;9.10;86.90
59572;DHT22;59406;45.602;11.904;2022-12-29T08:13:04;9.30;86.70
59572;DHT22;59406;45.602;11.904;2022-12-29T08:15:30;9.30;86.70
59572;DHT22;59406;45.602;11.904;2022-12-29T08:17:56;9.40;86.60
59572;DHT22;59406;45.602;11.904;2022-12-29T08:20:22;9.50;86.90
59572;DHT22;59406;45.602;11.904;2022-12-29T08:22:47;9.50;86.80
59572;DHT22;59406;45.602;11.904;2022-12-29T08:25:13;9.60;86.80
59572;DHT22;59406;45.602;11.904;2022-12-29T08:27:39;9.70;86.70
59572;DHT22;59406;45.602;11.904;2022-12-29T08:30:06;9.70;86.50
59572;DHT22;59406;45.602;11.904;2022-12-29T08:32:32;9.80;86.60
59572;DHT22;59406;45.602;11.904;2022-12-29T08:34:57;9.90;86.50
59572;DHT22;59406;45.602;11.904;2022-12-29T08:37:25;9.90;86.80
59572;DHT22;59406;45.602;11.904;2022-12-29T08:39:50;9.90;86.60
59572;DHT22;59406;45.602;11.904;2022-12-29T08:42:16;9.90;86.60
59572;DHT22;59406;45.602;11.904;2022-12-29T08:44:42;10.00;86.60
59572;DHT22;59406;45.602;11.904;2022-12-29T08:47:10;10.00;86.80
59572;DHT22;59406;45.602;11.904;2022-12-29T08:49:36;10.10;86.80
59572;DHT22;59406;45.602;11.904;2022-12-29T08:52:02;10.30;86.80
59572;DHT22;59406;45.602;11.904;2022-12-29T08:54:28;10.30;86.50
59572;DHT22;59406;45.602;11.904;2022-12-29T08:56:54;10.30;86.50
59572;DHT22;59406;45.602;11.904;2022-12-29T08:59:20;10.30;86.60
59572;DHT22;59406;45.602;11.904;2022-12-29T09:01:46;10.40;86.60
59572;DHT22;59406;45.602;11.904;2022-12-29T09:04:12;10.40;86.40
59572;DHT22;59406;45.602;11.904;2022-12-29T09:06:37;10.40;86.70
59572;DHT22;59406;45.602;11.904;2022-12-29T09:09:03;10.50;86.20
59572;DHT22;59406;45.602;11.904;2022-12-29T09:11:29;10.70;86.20
59572;DHT22;59406;45.602;11.904;2022-12-29T09:13:55;10.70;86.00
59572;DHT22;59406;45.602;11.904;2022-12-29T09:16:23;11.00;85.70
59572;DHT22;59406;45.602;11.904;2022-12-29T09:18:50;11.00;85.30
59572;DHT22;59406;45.602;11.904;2022-12-29T09:21:16;10.90;85.10
59572;DHT22;59406;45.602;11.904;2022-12-29T09:23:41;11.00;85.40
59572;DHT22;59406;45.602;11.904;2022-12-29T09:26:08;11.20;85.40
59572;DHT22;59406;45.602;11.904;2022-12-29T09:28:34;11.50;85.10
59572;DHT22;59406;45.602;11.904;2022-12-29T09:31:00;11.70;84.80
59572;DHT22;59406;45.602;11.904;2022-12-29T09:33:27;11.90;84.10
59572;DHT22;59406;45.602;11.904;2022-12-29T09:35:55;12.00;83.90
59572;DHT22;59406;45.602;11.904;2022-12-29T09:38:23;12.40;83.70
59572;DHT22;59406;45.602;11.904;2022-12-29T09:40:51;12.30;83.90
59572;DHT22;59406;45.602;11.904;2022-12-29T09:45:57;12.10;82.80
59572;DHT22;59406;45.602;11.904;2022-12-29T09:48:29;12.30;83.50
59572;DHT22;59406;45.602;11.904;2022-12-29T09:51:00;12.40;83.70
59572;DHT22;59406;45.602;11.904;2022-12-29T09:56:02;12.80;81.90
59572;DHT22;59406;45.602;11.904;2022-12-29T09:58:35;12.90;81.70
59572;DHT22;59406;45.602;11.904;2022-12-29T10:01:16;12.90;81.50
59572;DHT22;59406;45.602;11.904;2022-12-29T10:03:51;12.90;81.50
59572;DHT22;59406;45.602;11.904;2022-12-29T10:12:06;12.90;80.70
59572;DHT22;59406;45.602;11.904;2022-12-29T10:25:43;13.00;81.30
59572;DHT22;59406;45.602;11.904;2022-12-29T10:28:22;12.90;81.40
59572;DHT22;59406;45.602;11.904;2022-12-29T10:30:49;12.80;81.40
59572;DHT22;59406;45.602;11.904;2022-12-29T10:33:19;12.90;81.50
59572;DHT22;59406;45.602;11.904;2022-12-29T10:35:49;13.00;81.20
59572;DHT22;59406;45.602;11.904;2022-12-29T10:38:57;13.00;80.80
59572;DHT22;59406;45.602;11.904;2022-12-29T10:41:25;13.10;80.80
59572;DHT22;59406;45.602;11.904;2022-12-29T10:43:54;13.20;80.80
59572;DHT22;59406;45.602;11.904;2022-12-29T10:46:27;13.20;80.70
59572;DHT22;59406;45.602;11.904;2022-12-29T10:48:54;13.20;80.90
59572;DHT22;59406;45.602;11.904;2022-12-29T10:51:30;13.30;80.80
59572;DHT22;59406;45.602;11.904;2022-12-29T10:54:05;13.30;80.60
59572;DHT22;59406;45.602;11.904;2022-12-29T10:56:34;13.40;80.50
59572;DHT22;59406;45.602;11.904;2022-12-29T10:59:23;13.50;80.70
59572;DHT22;59406;45.602;11.904;2022-12-29T11:05:02;13.80;79.90
59572;DHT22;59406;45.602;11.904;2022-12-29T11:07:30;13.90;79.00
59572;DHT22;59406;45.602;11.904;2022-12-29T11:10:30;14.10;79.20
59572;DHT22;59406;45.602;11.904;2022-12-29T11:13:02;14.40;78.40
59572;DHT22;59406;45.602;11.904;2022-12-29T11:15:49;14.50;78.80
59572;DHT22;59406;45.602;11.904;2022-12-29T11:18:32;14.90;78.40
59572;DHT22;59406;45.602;11.904;2022-12-29T11:21:01;14.90;78.00
59572;DHT22;59406;45.602;11.904;2022-12-29T11:28:44;14.40;78.10
59572;DHT22;59406;45.602;11.904;2022-12-29T11:31:13;14.30;78.40
59572;DHT22;59406;45.602;11.904;2022-12-29T11:33:41;14.20;78.50
59572;DHT22;59406;45.602;11.904;2022-12-29T11:36:15;14.50;78.40
59572;DHT22;59406;45.602;11.904;2022-12-29T11:38:46;14.70;78.50
59572;DHT22;59406;45.602;11.904;2022-12-29T11:41:18;14.70;78.30
59572;DHT22;59406;45.602;11.904;2022-12-29T11:43:45;14.90;78.10
59572;DHT22;59406;45.602;11.904;2022-12-29T11:46:17;15.20;77.90
59572;DHT22;59406;45.602;11.904;2022-12-29T11:48:46;15.40;77.60
59572;DHT22;59406;45.602;11.904;2022-12-29T11:51:21;15.10;77.10
59572;DHT22;59406;45.602;11.904;2022-12-29T11:53:51;15.30;77.00
59572;DHT22;59406;45.602;11.904;2022-12-29T11:56:20;15.30;77.00
59572;DHT22;59406;45.602;11.904;2022-12-29T11:58:50;15.20;76.80
59572;DHT22;59406;45.602;11.904;2022-12-29T12:01:23;15.20;77.10
59572;DHT22;59406;45.602;11.904;2022-12-29T12:03:56;15.10;76.80
59572;DHT22;59406;45.602;11.904;2022-12-29T12:06:23;15.10;77.10
59572;DHT22;59406;45.602;11.904;2022-12-29T12:09:10;15.30;76.90
59572;DHT22;59406;45.602;11.904;2022-12-29T12:11:40;15.50;75.00
59572;DHT22;59406;45.602;11.904;2022-12-29T12:14:34;15.70;75.20
59572;DHT22;59406;45.602;11.904;2022-12-29T12:17:09;15.70;74.50
59572;DHT22;59406;45.602;11.904;2022-12-29T12:19:43;15.50;75.30
59572;DHT22;59406;45.602;11.904;2022-12-29T12:22:27;15.50;75.40
59572;DHT22;59406;45.602;11.904;2022-12-29T12:25:09;15.60;75.10
59572;DHT22;59406;45.602;11.904;2022-12-29T12:27:41;15.60;74.80
59572;DHT22;59406;45.602;11.904;2022-12-29T12:33:05;15.20;76.20
59572;DHT22;59406;45.602;11.904;2022-12-29T12:38:42;15.50;74.80
59572;DHT22;59406;45.602;11.904;2022-12-29T12:43:50;15.50;74.90
59572;DHT22;59406;45.602;11.904;2022-12-29T12:49:33;15.30;76.20
59572;DHT22;59406;45.602;11.904;2022-12-29T13:00:09;15.20;77.20
59572;DHT22;59406;45.602;11.904;2022-12-29T13:16:49;14.60;77.00
59572;DHT22;59406;45.602;11.904;2022-12-29T13:19:24;14.60;77.50
59572;DHT22;59406;45.602;11.904;2022-12-29T13:22:18;14.40;78.10
59572;DHT22;59406;45.602;11.904;2022-12-29T13:30:10;14.40;77.80
59572;DHT22;59406;45.602;11.904;2022-12-29T13:35:30;14.20;77.80
59572;DHT22;59406;45.602;11.904;2022-12-29T13:40:36;14.30;78.10
59572;DHT22;59406;45.602;11.904;2022-12-29T13:43:05;14.30;77.90
59572;DHT22;59406;45.602;11.904;2022-12-29T13:45:32;14.30;77.90
59572;DHT22;59406;45.602;11.904;2022-12-29T13:48:17;14.20;78.00
59572;DHT22;59406;45.602;11.904;2022-12-29T13:50:51;14.10;78.10
59572;DHT22;59406;45.602;11.904;2022-12-29T13:56:22;13.80;79.00
59572;DHT22;59406;45.602;11.904;2022-12-29T13:58:54;13.80;78.90
59572;DHT22;59406;45.602;11.904;2022-12-29T14:01:39;13.70;79.20
59572;DHT22;59406;45.602;11.904;2022-12-29T14:04:15;13.50;79.80
59572;DHT22;59406;45.602;11.904;2022-12-29T14:06:52;13.70;79.70
59572;DHT22;59406;45.602;11.904;2022-12-29T14:09:50;13.60;79.80
59572;DHT22;59406;45.602;11.904;2022-12-29T14:12:40;13.40;79.80
59572;DHT22;59406;45.602;11.904;2022-12-29T14:17:37;13.40;80.00
59572;DHT22;59406;45.602;11.904;2022-12-29T14:20:06;13.60;80.10
59572;DHT22;59406;45.602;11.904;2022-12-29T14:22:59;13.60;79.90
59572;DHT22;59406;45.602;11.904;2022-12-29T14:28:30;13.30;80.30
59572;DHT22;59406;45.602;11.904;2022-12-29T14:30:59;13.20;80.40
59572;DHT22;59406;45.602;11.904;2022-12-29T14:33:30;13.30;80.40
59572;DHT22;59406;45.602;11.904;2022-12-29T14:35:57;13.30;80.00
59572;DHT22;59406;45.602;11.904;2022-12-29T14:38:46;13.40;80.10
59572;DHT22;59406;45.602;11.904;2022-12-29T14:43:53;13.40;80.20
59572;DHT22;59406;45.602;11.904;2022-12-29T14:46:20;13.40;80.20
59572;DHT22;59406;45.602;11.904;2022-12-29T14:48:46;13.40;80.20
59572;DHT22;59406;45.602;11.904;2022-12-29T14:51:32;13.40;80.10
59572;DHT22;59406;45.602;11.904;2022-12-29T14:53:59;13.50;80.20
59572;DHT22;59406;45.602;11.904;2022-12-29T14:56:28;13.60;80.00
59572;DHT22;59406;45.602;11.904;2022-12-29T14:59:02;13.70;79.70
59572;DHT22;59406;45.602;11.904;2022-12-29T15:01:46;13.60;79.70
59572;DHT22;59406;45.602;11.904;2022-12-29T15:04:22;13.70;79.90
59572;DHT22;59406;45.602;11.904;2022-12-29T15:06:50;13.70;79.90
59572;DHT22;59406;45.602;11.904;2022-12-29T15:09:31;13.70;79.90
59572;DHT22;59406;45.602;11.904;2022-12-29T15:14:48;13.50;80.10
59572;DHT22;59406;45.602;11.904;2022-12-29T15:17:34;13.40;80.30
59572;DHT22;59406;45.602;11.904;2022-12-29T15:20:24;13.30;80.50
59572;DHT22;59406;45.602;11.904;2022-12-29T15:22:56;13.20;80.40
59572;DHT22;59406;45.602;11.904;2022-12-29T15:25:24;13.20;80.70
59572;DHT22;59406;45.602;11.904;2022-12-29T15:28:02;13.20;80.60
59572;DHT22;59406;45.602;11.904;2022-12-29T15:30:30;13.10;80.80
59572;DHT22;59406;45.602;11.904;2022-12-29T15:32:56;13.10;80.80
59572;DHT22;59406;45.602;11.904;2022-12-29T15:35:31;13.20;80.80
59572;DHT22;59406;45.602;11.904;2022-12-29T15:37:58;13.10;80.80
59572;DHT22;59406;45.602;11.904;2022-12-29T15:40:30;13.10;80.80
59572;DHT22;59406;45.602;11.904;2022-12-29T15:45:41;13.10;81.00
59572;DHT22;59406;45.602;11.904;2022-12-29T15:48:16;13.30;80.90
59572;DHT22;59406;45.602;11.904;2022-12-29T15:50:44;13.10;80.90
59572;DHT22;59406;45.602;11.904;2022-12-29T15:53:12;13.10;81.00
59572;DHT22;59406;45.602;11.904;2022-12-29T15:55:42;13.20;81.00
59572;DHT22;59406;45.602;11.904;2022-12-29T15:58:23;13.10;81.30
59572;DHT22;59406;45.602;11.904;2022-12-29T16:00:58;12.90;81.60
59572;DHT22;59406;45.602;11.904;2022-12-29T16:03:35;12.90;81.40
59572;DHT22;59406;45.602;11.904;2022-12-29T16:06:32;12.90;81.50
59572;DHT22;59406;45.602;11.904;2022-12-29T16:09:04;12.90;81.60
59572;DHT22;59406;45.602;11.904;2022-12-29T16:11:38;13.00;81.40
59572;DHT22;59406;45.602;11.904;2022-12-29T16:14:32;12.80;81.90
59572;DHT22;59406;45.602;11.904;2022-12-29T16:17:02;12.80;82.30
59572;DHT22;59406;45.602;11.904;2022-12-29T16:19:39;12.80;82.00
59572;DHT22;59406;45.602;11.904;2022-12-29T16:22:41;12.70;82.00
59572;DHT22;59406;45.602;11.904;2022-12-29T16:25:16;12.80;82.20
59572;DHT22;59406;45.602;11.904;2022-12-29T16:27:44;12.70;81.80
59572;DHT22;59406;45.602;11.904;2022-12-29T16:30:33;12.70;82.10
59572;DHT22;59406;45.602;11.904;2022-12-29T16:33:04;12.70;82.40
59572;DHT22;59406;45.602;11.904;2022-12-29T16:38:20;12.70;83.50
59572;DHT22;59406;45.602;11.904;2022-12-29T16:41:02;12.70;82.30
59572;DHT22;59406;45.602;11.904;2022-12-29T16:43:31;12.70;83.90
59572;DHT22;59406;45.602;11.904;2022-12-29T16:48:35;12.50;83.50
59572;DHT22;59406;45.602;11.904;2022-12-29T16:51:11;12.60;83.60
59572;DHT22;59406;45.602;11.904;2022-12-29T16:53:40;12.60;83.90
59572;DHT22;59406;45.602;11.904;2022-12-29T16:56:22;12.50;84.00
59572;DHT22;59406;45.602;11.904;2022-12-29T17:01:27;12.60;84.30
59572;DHT22;59406;45.602;11.904;2022-12-29T17:03:58;12.50;84.10
59572;DHT22;59406;45.602;11.904;2022-12-29T17:06:24;12.50;84.30
59572;DHT22;59406;45.602;11.904;2022-12-29T17:08:51;12.50;84.00
59572;DHT22;59406;45.602;11.904;2022-12-29T17:11:21;12.50;84.10
59572;DHT22;59406;45.602;11.904;2022-12-29T17:16:57;12.50;84.30
59572;DHT22;59406;45.602;11.904;2022-12-29T17:19:33;12.30;84.20
59572;DHT22;59406;45.602;11.904;2022-12-29T17:22:00;12.40;84.40
59572;DHT22;59406;45.602;11.904;2022-12-29T17:24:26;12.30;85.00
59572;DHT22;59406;45.602;11.904;2022-12-29T17:26:56;12.20;84.80
59572;DHT22;59406;45.602;11.904;2022-12-29T17:29:30;12.10;85.50
59572;DHT22;59406;45.602;11.904;2022-12-29T17:31:57;11.90;85.80
59572;DHT22;59406;45.602;11.904;2022-12-29T17:34:23;11.90;85.90
59572;DHT22;59406;45.602;11.904;2022-12-29T17:36:49;11.80;85.90
59572;DHT22;59406;45.602;11.904;2022-12-29T17:39:15;11.80;85.60
59572;DHT22;59406;45.602;11.904;2022-12-29T17:41:41;11.80;85.90
59572;DHT22;59406;45.602;11.904;2022-12-29T17:44:17;11.80;85.70
59572;DHT22;59406;45.602;11.904;2022-12-29T17:46:45;11.90;85.90
59572;DHT22;59406;45.602;11.904;2022-12-29T17:49:16;11.70;86.00
59572;DHT22;59406;45.602;11.904;2022-12-29T17:51:44;11.60;86.00
59572;DHT22;59406;45.602;11.904;2022-12-29T17:54:28;11.60;86.20
59572;DHT22;59406;45.602;11.904;2022-12-29T17:56:54;11.60;86.70
59572;DHT22;59406;45.602;11.904;2022-12-29T17:59:20;11.60;86.30
59572;DHT22;59406;45.602;11.904;2022-12-29T18:01:48;11.60;86.30
59572;DHT22;59406;45.602;11.904;2022-12-29T18:04:16;11.80;86.10
59572;DHT22;59406;45.602;11.904;2022-12-29T18:06:44;11.70;86.20
59572;DHT22;59406;45.602;11.904;2022-12-29T18:09:11;11.70;86.60